sensor_id;sensor_type;location;lat;lon;timestamp;P1;durP1;ratioP1;P2;durP2;ratioP2
12990;SDS011;6560;57.692;11.958;2022-09-03T00:00:08;1.50;;;1.20;;
12990;SDS011;6560;57.692;11.958;2022-09-03T00:10:10;0.97;;;0.87;;
12990;SDS011;6560;57.692;11.958;2022-09-03T00:12:38;2.37;;;1.67;;
12990;SDS011;6560;57.692;11.958;2022-09-03T00:15:07;0.80;;;0.80;;
12990;SDS011;6560;57.692;11.958;2022-09-03T00:22:53;3.23;;;1.17;;
12990;SDS011;6560;57.692;11.958;2022-09-03T00:25:22;1.27;;;1.00;;
12990;SDS011;6560;57.692;11.958;2022-09-03T00:27:50;2.03;;;0.97;;
12990;SDS011;6560;57.692;11.958;2022-09-03T00:30:17;2.53;;;1.47;;
12990;SDS011;6560;57.692;11.958;2022-09-03T00:32:47;2.10;;;1.07;;
12990;SDS011;6560;57.692;11.958;2022-09-03T00:37:50;1.10;;;0.90;;
12990;SDS011;6560;57.692;11.958;2022-09-03T00:40:18;2.63;;;1.73;;
12990;SDS011;6560;57.692;11.958;2022-09-03T00:42:54;1.43;;;1.33;;
12990;SDS011;6560;57.692;11.958;2022-09-03T00:45:30;1.90;;;0.87;;
12990;SDS011;6560;57.692;11.958;2022-09-03T00:48:03;2.50;;;1.37;;
12990;SDS011;6560;57.692;11.958;2022-09-03T00:53:00;1.70;;;0.90;;
12990;SDS011;6560;57.692;11.958;2022-09-03T00:58:20;1.27;;;1.00;;
12990;SDS011;6560;57.692;11.958;2022-09-03T01:00:51;3.53;;;1.57;;
12990;SDS011;6560;57.692;11.958;2022-09-03T01:08:38;0.93;;;0.90;;
12990;SDS011;6560;57.692;11.958;2022-09-03T01:16:45;6.03;;;1.23;;
12990;SDS011;6560;57.692;11.958;2022-09-03T01:21:58;1.90;;;0.93;;
12990;SDS011;6560;57.692;11.958;2022-09-03T01:29:44;1.10;;;0.90;;
12990;SDS011;6560;57.692;11.958;2022-09-03T01:32:13;2.43;;;1.10;;
12990;SDS011;6560;57.692;11.958;2022-09-03T01:39:47;2.40;;;1.30;;
12990;SDS011;6560;57.692;11.958;2022-09-03T01:50:49;1.30;;;1.00;;
12990;SDS011;6560;57.692;11.958;2022-09-03T01:55:53;1.33;;;0.90;;
12990;SDS011;6560;57.692;11.958;2022-09-03T02:01:04;0.80;;;0.80;;
12990;SDS011;6560;57.692;11.958;2022-09-03T02:03:32;1.83;;;0.80;;
12990;SDS011;6560;57.692;11.958;2022-09-03T02:05:59;1.60;;;0.97;;
12990;SDS011;6560;57.692;11.958;2022-09-03T02:08:25;1.37;;;0.93;;
12990;SDS011;6560;57.692;11.958;2022-09-03T02:10:54;0.90;;;0.90;;
12990;SDS011;6560;57.692;11.958;2022-09-03T02:13:24;1.80;;;1.13;;
12990;SDS011;6560;57.692;11.958;2022-09-03T02:15:51;1.97;;;1.10;;
12990;SDS011;6560;57.692;11.958;2022-09-03T02:18:18;0.80;;;0.80;;
12990;SDS011;6560;57.692;11.958;2022-09-03T02:20:44;0.93;;;0.90;;
12990;SDS011;6560;57.692;11.958;2022-09-03T02:23:12;1.67;;;0.90;;
12990;SDS011;6560;57.692;11.958;2022-09-03T02:25:39;0.83;;;0.80;;
12990;SDS011;6560;57.692;11.958;2022-09-03T02:28:05;2.20;;;1.17;;
12990;SDS011;6560;57.692;11.958;2022-09-03T02:30:31;0.90;;;0.80;;
12990;SDS011;6560;57.692;11.958;2022-09-03T02:32:57;1.80;;;0.73;;
12990;SDS011;6560;57.692;11.958;2022-09-03T02:35:23;0.77;;;0.70;;
12990;SDS011;6560;57.692;11.958;2022-09-03T02:37:48;1.23;;;0.90;;
12990;SDS011;6560;57.692;11.958;2022-09-03T02:40:14;1.17;;;0.80;;
12990;SDS011;6560;57.692;11.958;2022-09-03T02:42:40;1.47;;;1.00;;
12990;SDS011;6560;57.692;11.958;2022-09-03T02:47:33;1.67;;;0.77;;
12990;SDS011;6560;57.692;11.958;2022-09-03T02:49:59;1.07;;;0.70;;
12990;SDS011;6560;57.692;11.958;2022-09-03T02:52:25;2.63;;;0.83;;
12990;SDS011;6560;57.692;11.958;2022-09-03T02:54:50;1.13;;;0.97;;
12990;SDS011;6560;57.692;11.958;2022-09-03T02:57:16;1.23;;;0.97;;
12990;SDS011;6560;57.692;11.958;2022-09-03T02:59:41;2.17;;;0.90;;
12990;SDS011;6560;57.692;11.958;2022-09-03T03:02:08;1.07;;;0.60;;
12990;SDS011;6560;57.692;11.958;2022-09-03T03:04:34;1.20;;;0.73;;
12990;SDS011;6560;57.692;11.958;2022-09-03T03:06:59;3.40;;;1.03;;
12990;SDS011;6560;57.692;11.958;2022-09-03T03:09:24;0.70;;;0.70;;
12990;SDS011;6560;57.692;11.958;2022-09-03T03:11:50;1.17;;;0.90;;
12990;SDS011;6560;57.692;11.958;2022-09-03T03:14:16;1.53;;;0.90;;
12990;SDS011;6560;57.692;11.958;2022-09-03T03:16:42;1.47;;;0.80;;
12990;SDS011;6560;57.692;11.958;2022-09-03T03:19:07;1.13;;;0.70;;
12990;SDS011;6560;57.692;11.958;2022-09-03T03:21:33;0.80;;;0.80;;
12990;SDS011;6560;57.692;11.958;2022-09-03T03:23:59;1.90;;;0.93;;
12990;SDS011;6560;57.692;11.958;2022-09-03T03:26:25;2.43;;;1.17;;
12990;SDS011;6560;57.692;11.958;2022-09-03T03:28:54;0.80;;;0.80;;
12990;SDS011;6560;57.692;11.958;2022-09-03T03:31:20;0.63;;;0.60;;
12990;SDS011;6560;57.692;11.958;2022-09-03T03:33:59;1.00;;;0.63;;
12990;SDS011;6560;57.692;11.958;2022-09-03T03:36:25;2.03;;;0.80;;
12990;SDS011;6560;57.692;11.958;2022-09-03T03:38:54;0.80;;;0.80;;
12990;SDS011;6560;57.692;11.958;2022-09-03T03:41:21;1.17;;;0.73;;
12990;SDS011;6560;57.692;11.958;2022-09-03T03:43:46;1.90;;;0.60;;
12990;SDS011;6560;57.692;11.958;2022-09-03T03:46:12;1.30;;;0.80;;
12990;SDS011;6560;57.692;11.958;2022-09-03T03:48:39;2.40;;;0.60;;
12990;SDS011;6560;57.692;11.958;2022-09-03T03:51:05;1.47;;;0.93;;
12990;SDS011;6560;57.692;11.958;2022-09-03T03:53:35;1.60;;;0.67;;
12990;SDS011;6560;57.692;11.958;2022-09-03T03:56:01;2.13;;;0.90;;
12990;SDS011;6560;57.692;11.958;2022-09-03T03:58:27;0.80;;;0.77;;
12990;SDS011;6560;57.692;11.958;2022-09-03T04:00:53;1.23;;;0.70;;
12990;SDS011;6560;57.692;11.958;2022-09-03T04:03:18;2.40;;;0.73;;
12990;SDS011;6560;57.692;11.958;2022-09-03T04:05:53;2.10;;;0.60;;
12990;SDS011;6560;57.692;11.958;2022-09-03T04:08:19;0.97;;;0.50;;
12990;SDS011;6560;57.692;11.958;2022-09-03T04:10:44;0.43;;;0.43;;
12990;SDS011;6560;57.692;11.958;2022-09-03T04:13:09;0.53;;;0.53;;
12990;SDS011;6560;57.692;11.958;2022-09-03T04:15:35;0.80;;;0.80;;
12990;SDS011;6560;57.692;11.958;2022-09-03T04:18:01;0.97;;;0.63;;
12990;SDS011;6560;57.692;11.958;2022-09-03T04:20:26;3.23;;;1.10;;
12990;SDS011;6560;57.692;11.958;2022-09-03T04:22:51;1.13;;;0.50;;
12990;SDS011;6560;57.692;11.958;2022-09-03T04:25:16;0.87;;;0.60;;
12990;SDS011;6560;57.692;11.958;2022-09-03T04:27:42;2.67;;;0.87;;
12990;SDS011;6560;57.692;11.958;2022-09-03T04:30:08;0.60;;;0.60;;
12990;SDS011;6560;57.692;11.958;2022-09-03T04:32:34;1.97;;;0.67;;
12990;SDS011;6560;57.692;11.958;2022-09-03T04:35:24;0.93;;;0.57;;
12990;SDS011;6560;57.692;11.958;2022-09-03T04:37:50;0.50;;;0.50;;
12990;SDS011;6560;57.692;11.958;2022-09-03T04:40:16;1.97;;;0.90;;
12990;SDS011;6560;57.692;11.958;2022-09-03T04:42:41;1.00;;;0.90;;
12990;SDS011;6560;57.692;11.958;2022-09-03T04:45:07;2.00;;;0.57;;
12990;SDS011;6560;57.692;11.958;2022-09-03T04:47:32;1.13;;;0.50;;
12990;SDS011;6560;57.692;11.958;2022-09-03T04:49:57;0.70;;;0.70;;
12990;SDS011;6560;57.692;11.958;2022-09-03T04:52:23;2.57;;;0.57;;
12990;SDS011;6560;57.692;11.958;2022-09-03T04:54:49;1.03;;;1.03;;
12990;SDS011;6560;57.692;11.958;2022-09-03T04:57:14;0.60;;;0.60;;
12990;SDS011;6560;57.692;11.958;2022-09-03T04:59:39;0.70;;;0.70;;
12990;SDS011;6560;57.692;11.958;2022-09-03T05:02:06;0.53;;;0.50;;
12990;SDS011;6560;57.692;11.958;2022-09-03T05:04:32;0.60;;;0.60;;
12990;SDS011;6560;57.692;11.958;2022-09-03T05:06:57;0.77;;;0.60;;
12990;SDS011;6560;57.692;11.958;2022-09-03T05:09:23;0.63;;;0.63;;
12990;SDS011;6560;57.692;11.958;2022-09-03T05:11:48;0.73;;;0.73;;
12990;SDS011;6560;57.692;11.958;2022-09-03T05:14:13;1.90;;;0.80;;
12990;SDS011;6560;57.692;11.958;2022-09-03T05:16:39;0.50;;;0.50;;
12990;SDS011;6560;57.692;11.958;2022-09-03T05:19:04;0.80;;;0.80;;
12990;SDS011;6560;57.692;11.958;2022-09-03T05:21:32;1.33;;;0.70;;
12990;SDS011;6560;57.692;11.958;2022-09-03T05:24:00;0.70;;;0.70;;
12990;SDS011;6560;57.692;11.958;2022-09-03T05:26:26;1.33;;;0.70;;
12990;SDS011;6560;57.692;11.958;2022-09-03T05:28:53;0.60;;;0.60;;
12990;SDS011;6560;57.692;11.958;2022-09-03T05:31:19;0.60;;;0.60;;
12990;SDS011;6560;57.692;11.958;2022-09-03T05:33:46;0.60;;;0.50;;
12990;SDS011;6560;57.692;11.958;2022-09-03T05:36:12;0.50;;;0.50;;
12990;SDS011;6560;57.692;11.958;2022-09-03T05:38:38;0.70;;;0.70;;
12990;SDS011;6560;57.692;11.958;2022-09-03T05:41:05;0.47;;;0.40;;
12990;SDS011;6560;57.692;11.958;2022-09-03T05:43:31;0.40;;;0.40;;
12990;SDS011;6560;57.692;11.958;2022-09-03T05:45:57;1.40;;;0.70;;
12990;SDS011;6560;57.692;11.958;2022-09-03T05:48:24;0.40;;;0.40;;
12990;SDS011;6560;57.692;11.958;2022-09-03T05:50:57;0.97;;;0.57;;
12990;SDS011;6560;57.692;11.958;2022-09-03T05:53:22;0.60;;;0.43;;
12990;SDS011;6560;57.692;11.958;2022-09-03T05:55:53;1.23;;;0.60;;
12990;SDS011;6560;57.692;11.958;2022-09-03T05:58:19;0.50;;;0.40;;
12990;SDS011;6560;57.692;11.958;2022-09-03T06:00:44;0.83;;;0.47;;
12990;SDS011;6560;57.692;11.958;2022-09-03T06:03:09;0.40;;;0.40;;
12990;SDS011;6560;57.692;11.958;2022-09-03T06:05:34;2.47;;;0.40;;
12990;SDS011;6560;57.692;11.958;2022-09-03T06:08:00;1.03;;;0.77;;
12990;SDS011;6560;57.692;11.958;2022-09-03T06:10:25;0.40;;;0.40;;
12990;SDS011;6560;57.692;11.958;2022-09-03T06:12:50;0.50;;;0.40;;
12990;SDS011;6560;57.692;11.958;2022-09-03T06:15:16;1.07;;;0.60;;
12990;SDS011;6560;57.692;11.958;2022-09-03T06:17:41;0.80;;;0.40;;
12990;SDS011;6560;57.692;11.958;2022-09-03T06:20:07;1.93;;;0.50;;
12990;SDS011;6560;57.692;11.958;2022-09-03T06:22:32;0.93;;;0.30;;
12990;SDS011;6560;57.692;11.958;2022-09-03T06:24:58;1.38;;;0.60;;
12990;SDS011;6560;57.692;11.958;2022-09-03T06:27:23;0.80;;;0.60;;
12990;SDS011;6560;57.692;11.958;2022-09-03T06:29:48;0.50;;;0.50;;
12990;SDS011;6560;57.692;11.958;2022-09-03T06:32:14;0.70;;;0.32;;
12990;SDS011;6560;57.692;11.958;2022-09-03T06:34:39;0.30;;;0.30;;
12990;SDS011;6560;57.692;11.958;2022-09-03T06:37:05;0.90;;;0.55;;
12990;SDS011;6560;57.692;11.958;2022-09-03T06:39:30;0.30;;;0.30;;
12990;SDS011;6560;57.692;11.958;2022-09-03T06:41:56;0.25;;;0.25;;
12990;SDS011;6560;57.692;11.958;2022-09-03T06:44:21;0.75;;;0.50;;
12990;SDS011;6560;57.692;11.958;2022-09-03T06:46:46;0.93;;;0.32;;
12990;SDS011;6560;57.692;11.958;2022-09-03T06:49:12;0.30;;;0.30;;
12990;SDS011;6560;57.692;11.958;2022-09-03T06:51:38;0.17;;;0.17;;
12990;SDS011;6560;57.692;11.958;2022-09-03T06:54:04;0.57;;;0.32;;
12990;SDS011;6560;57.692;11.958;2022-09-03T06:56:30;0.20;;;0.20;;
12990;SDS011;6560;57.692;11.958;2022-09-03T06:58:58;0.82;;;0.30;;
12990;SDS011;6560;57.692;11.958;2022-09-03T07:01:27;0.50;;;0.40;;
12990;SDS011;6560;57.692;11.958;2022-09-03T07:03:55;1.17;;;0.50;;
12990;SDS011;6560;57.692;11.958;2022-09-03T07:06:23;1.58;;;0.55;;
12990;SDS011;6560;57.692;11.958;2022-09-03T07:08:50;0.75;;;0.50;;
12990;SDS011;6560;57.692;11.958;2022-09-03T07:11:16;0.35;;;0.35;;
12990;SDS011;6560;57.692;11.958;2022-09-03T07:13:44;0.50;;;0.40;;
12990;SDS011;6560;57.692;11.958;2022-09-03T07:16:11;0.52;;;0.30;;
12990;SDS011;6560;57.692;11.958;2022-09-03T07:18:37;0.35;;;0.30;;
12990;SDS011;6560;57.692;11.958;2022-09-03T07:21:03;0.45;;;0.22;;
12990;SDS011;6560;57.692;11.958;2022-09-03T07:23:29;0.85;;;0.47;;
12990;SDS011;6560;57.692;11.958;2022-09-03T07:25:55;0.20;;;0.20;;
12990;SDS011;6560;57.692;11.958;2022-09-03T07:28:22;0.65;;;0.30;;
12990;SDS011;6560;57.692;11.958;2022-09-03T07:30:49;0.25;;;0.22;;
12990;SDS011;6560;57.692;11.958;2022-09-03T07:33:14;1.13;;;0.43;;
12990;SDS011;6560;57.692;11.958;2022-09-03T07:35:39;0.45;;;0.40;;
12990;SDS011;6560;57.692;11.958;2022-09-03T07:38:05;0.22;;;0.20;;
12990;SDS011;6560;57.692;11.958;2022-09-03T07:40:30;0.30;;;0.20;;
12990;SDS011;6560;57.692;11.958;2022-09-03T07:42:57;0.38;;;0.38;;
12990;SDS011;6560;57.692;11.958;2022-09-03T07:45:28;0.55;;;0.40;;
12990;SDS011;6560;57.692;11.958;2022-09-03T07:47:53;0.77;;;0.40;;
12990;SDS011;6560;57.692;11.958;2022-09-03T07:50:19;1.05;;;0.60;;
12990;SDS011;6560;57.692;11.958;2022-09-03T07:52:44;2.13;;;0.63;;
12990;SDS011;6560;57.692;11.958;2022-09-03T07:55:11;0.85;;;0.57;;
12990;SDS011;6560;57.692;11.958;2022-09-03T07:57:37;0.38;;;0.30;;
12990;SDS011;6560;57.692;11.958;2022-09-03T08:00:05;0.68;;;0.60;;
12990;SDS011;6560;57.692;11.958;2022-09-03T08:02:33;0.45;;;0.30;;
12990;SDS011;6560;57.692;11.958;2022-09-03T08:04:59;0.47;;;0.40;;
12990;SDS011;6560;57.692;11.958;2022-09-03T08:07:25;1.58;;;0.65;;
12990;SDS011;6560;57.692;11.958;2022-09-03T08:09:50;0.68;;;0.47;;
12990;SDS011;6560;57.692;11.958;2022-09-03T08:12:15;2.08;;;0.40;;
12990;SDS011;6560;57.692;11.958;2022-09-03T08:14:41;1.75;;;0.30;;
12990;SDS011;6560;57.692;11.958;2022-09-03T08:17:06;0.30;;;0.30;;
12990;SDS011;6560;57.692;11.958;2022-09-03T08:19:32;1.77;;;0.47;;
12990;SDS011;6560;57.692;11.958;2022-09-03T08:21:58;0.95;;;0.40;;
12990;SDS011;6560;57.692;11.958;2022-09-03T08:24:23;2.70;;;0.70;;
12990;SDS011;6560;57.692;11.958;2022-09-03T08:26:50;0.93;;;0.38;;
12990;SDS011;6560;57.692;11.958;2022-09-03T08:29:15;0.70;;;0.30;;
12990;SDS011;6560;57.692;11.958;2022-09-03T08:31:41;0.95;;;0.82;;
12990;SDS011;6560;57.692;11.958;2022-09-03T08:34:07;0.80;;;0.50;;
12990;SDS011;6560;57.692;11.958;2022-09-03T08:36:36;0.70;;;0.40;;
12990;SDS011;6560;57.692;11.958;2022-09-03T08:39:03;2.40;;;1.15;;
12990;SDS011;6560;57.692;11.958;2022-09-03T08:52:07;1.35;;;0.35;;
12990;SDS011;6560;57.692;11.958;2022-09-03T08:54:38;0.30;;;0.20;;
12990;SDS011;6560;57.692;11.958;2022-09-03T08:57:04;0.45;;;0.38;;
12990;SDS011;6560;57.692;11.958;2022-09-03T08:59:30;1.67;;;0.40;;
12990;SDS011;6560;57.692;11.958;2022-09-03T09:12:34;0.95;;;0.80;;
12990;SDS011;6560;57.692;11.958;2022-09-03T09:17:44;3.83;;;0.40;;
12990;SDS011;6560;57.692;11.958;2022-09-03T09:22:45;1.88;;;0.68;;
12990;SDS011;6560;57.692;11.958;2022-09-03T09:25:21;0.52;;;0.40;;
12990;SDS011;6560;57.692;11.958;2022-09-03T09:30:50;0.68;;;0.38;;
12990;SDS011;6560;57.692;11.958;2022-09-03T09:33:16;0.52;;;0.30;;
12990;SDS011;6560;57.692;11.958;2022-09-03T09:35:41;0.38;;;0.30;;
12990;SDS011;6560;57.692;11.958;2022-09-03T09:38:07;1.08;;;0.45;;
12990;SDS011;6560;57.692;11.958;2022-09-03T09:40:34;0.52;;;0.40;;
12990;SDS011;6560;57.692;11.958;2022-09-03T09:43:18;0.35;;;0.35;;
12990;SDS011;6560;57.692;11.958;2022-09-03T09:45:46;0.52;;;0.50;;
12990;SDS011;6560;57.692;11.958;2022-09-03T09:48:14;0.55;;;0.47;;
12990;SDS011;6560;57.692;11.958;2022-09-03T09:50:41;0.32;;;0.30;;
12990;SDS011;6560;57.692;11.958;2022-09-03T09:53:07;0.30;;;0.30;;
12990;SDS011;6560;57.692;11.958;2022-09-03T09:55:55;0.85;;;0.47;;
12990;SDS011;6560;57.692;11.958;2022-09-03T09:58:22;0.98;;;0.45;;
12990;SDS011;6560;57.692;11.958;2022-09-03T10:00:59;1.27;;;0.60;;
12990;SDS011;6560;57.692;11.958;2022-09-03T10:03:25;0.38;;;0.30;;
12990;SDS011;6560;57.692;11.958;2022-09-03T10:06:00;0.35;;;0.35;;
12990;SDS011;6560;57.692;11.958;2022-09-03T10:08:46;0.95;;;0.50;;
12990;SDS011;6560;57.692;11.958;2022-09-03T10:11:11;0.75;;;0.40;;
12990;SDS011;6560;57.692;11.958;2022-09-03T10:13:42;0.45;;;0.40;;
12990;SDS011;6560;57.692;11.958;2022-09-03T10:18:47;0.30;;;0.28;;
12990;SDS011;6560;57.692;11.958;2022-09-03T10:21:23;0.45;;;0.32;;
12990;SDS011;6560;57.692;11.958;2022-09-03T10:26:39;1.70;;;0.55;;
12990;SDS011;6560;57.692;11.958;2022-09-03T10:29:06;1.88;;;0.35;;
12990;SDS011;6560;57.692;11.958;2022-09-03T10:37:40;1.80;;;0.60;;
12990;SDS011;6560;57.692;11.958;2022-09-03T10:40:11;4.15;;;0.88;;
12990;SDS011;6560;57.692;11.958;2022-09-03T10:46:01;0.50;;;0.50;;
12990;SDS011;6560;57.692;11.958;2022-09-03T10:51:18;0.60;;;0.30;;
12990;SDS011;6560;57.692;11.958;2022-09-03T11:00:11;0.32;;;0.30;;
12990;SDS011;6560;57.692;11.958;2022-09-03T11:08:43;1.50;;;0.47;;
12990;SDS011;6560;57.692;11.958;2022-09-03T11:11:58;1.95;;;0.50;;
12990;SDS011;6560;57.692;11.958;2022-09-03T11:15:03;0.90;;;0.47;;
12990;SDS011;6560;57.692;11.958;2022-09-03T11:17:37;1.30;;;0.30;;
12990;SDS011;6560;57.692;11.958;2022-09-03T11:22:36;3.22;;;0.65;;
12990;SDS011;6560;57.692;11.958;2022-09-03T11:25:03;0.52;;;0.50;;
12990;SDS011;6560;57.692;11.958;2022-09-03T11:30:51;0.50;;;0.43;;
12990;SDS011;6560;57.692;11.958;2022-09-03T11:51:33;0.60;;;0.28;;
12990;SDS011;6560;57.692;11.958;2022-09-03T11:57:38;0.60;;;0.40;;
12990;SDS011;6560;57.692;11.958;2022-09-03T12:12:50;2.58;;;1.58;;
12990;SDS011;6560;57.692;11.958;2022-09-03T12:37:45;1.00;;;0.68;;
12990;SDS011;6560;57.692;11.958;2022-09-03T12:43:12;0.95;;;0.40;;
12990;SDS011;6560;57.692;11.958;2022-09-03T12:45:48;1.98;;;1.13;;
12990;SDS011;6560;57.692;11.958;2022-09-03T12:48:29;4.00;;;0.80;;
12990;SDS011;6560;57.692;11.958;2022-09-03T12:51:03;1.50;;;0.77;;
12990;SDS011;6560;57.692;11.958;2022-09-03T12:53:32;3.55;;;1.00;;
12990;SDS011;6560;57.692;11.958;2022-09-03T13:00:09;1.15;;;0.77;;
12990;SDS011;6560;57.692;11.958;2022-09-03T13:03:11;1.00;;;0.73;;
12990;SDS011;6560;57.692;11.958;2022-09-03T13:15:32;0.40;;;0.40;;
12990;SDS011;6560;57.692;11.958;2022-09-03T13:18:27;0.50;;;0.40;;
12990;SDS011;6560;57.692;11.958;2022-09-03T13:32:28;0.65;;;0.35;;
12990;SDS011;6560;57.692;11.958;2022-09-03T13:35:04;1.48;;;0.47;;
12990;SDS011;6560;57.692;11.958;2022-09-03T13:37:42;0.75;;;0.68;;
12990;SDS011;6560;57.692;11.958;2022-09-03T13:40:51;0.82;;;0.60;;
12990;SDS011;6560;57.692;11.958;2022-09-03T13:43:39;0.55;;;0.50;;
12990;SDS011;6560;57.692;11.958;2022-09-03T13:45:49;0.75;;;0.68;;
12990;SDS011;6560;57.692;11.958;2022-09-03T13:48:17;1.75;;;0.50;;
12990;SDS011;6560;57.692;11.958;2022-09-03T13:57:04;0.88;;;0.60;;
12990;SDS011;6560;57.692;11.958;2022-09-03T14:04:43;2.65;;;0.88;;
12990;SDS011;6560;57.692;11.958;2022-09-03T14:10:05;1.08;;;0.98;;
12990;SDS011;6560;57.692;11.958;2022-09-03T14:15:14;2.17;;;0.57;;
12990;SDS011;6560;57.692;11.958;2022-09-03T14:20:18;0.82;;;0.57;;
12990;SDS011;6560;57.692;11.958;2022-09-03T14:22:59;0.50;;;0.50;;
12990;SDS011;6560;57.692;11.958;2022-09-03T14:25:27;0.57;;;0.55;;
12990;SDS011;6560;57.692;11.958;2022-09-03T14:28:10;1.65;;;0.70;;
12990;SDS011;6560;57.692;11.958;2022-09-03T14:30:42;1.15;;;0.70;;
12990;SDS011;6560;57.692;11.958;2022-09-03T14:33:14;0.90;;;0.50;;
12990;SDS011;6560;57.692;11.958;2022-09-03T14:36:00;2.38;;;0.40;;
12990;SDS011;6560;57.692;11.958;2022-09-03T14:49:21;0.65;;;0.50;;
12990;SDS011;6560;57.692;11.958;2022-09-03T14:51:54;2.35;;;0.57;;
12990;SDS011;6560;57.692;11.958;2022-09-03T14:54:26;0.35;;;0.28;;
12990;SDS011;6560;57.692;11.958;2022-09-03T15:02:13;1.05;;;0.52;;
12990;SDS011;6560;57.692;11.958;2022-09-03T15:09:45;0.88;;;0.60;;
12990;SDS011;6560;57.692;11.958;2022-09-03T15:14:53;1.88;;;0.77;;
12990;SDS011;6560;57.692;11.958;2022-09-03T15:20:01;1.00;;;0.70;;
12990;SDS011;6560;57.692;11.958;2022-09-03T15:45:37;0.52;;;0.50;;
12990;SDS011;6560;57.692;11.958;2022-09-03T15:53:44;0.73;;;0.50;;
12990;SDS011;6560;57.692;11.958;2022-09-03T16:05:37;0.93;;;0.60;;
12990;SDS011;6560;57.692;11.958;2022-09-03T16:23:26;0.77;;;0.47;;
12990;SDS011;6560;57.692;11.958;2022-09-03T18:00:23;1.52;;;0.85;;
12990;SDS011;6560;57.692;11.958;2022-09-03T18:06:23;1.40;;;0.80;;
12990;SDS011;6560;57.692;11.958;2022-09-03T18:09:21;1.35;;;0.80;;
12990;SDS011;6560;57.692;11.958;2022-09-03T18:12:23;1.23;;;0.85;;
12990;SDS011;6560;57.692;11.958;2022-09-03T18:14:53;1.20;;;1.10;;
12990;SDS011;6560;57.692;11.958;2022-09-03T18:17:24;0.88;;;0.88;;
12990;SDS011;6560;57.692;11.958;2022-09-03T18:19:54;1.30;;;1.02;;
12990;SDS011;6560;57.692;11.958;2022-09-03T18:32:04;8.13;;;1.52;;
12990;SDS011;6560;57.692;11.958;2022-09-03T18:35:08;3.55;;;1.33;;
12990;SDS011;6560;57.692;11.958;2022-09-03T18:38:17;2.55;;;1.88;;
12990;SDS011;6560;57.692;11.958;2022-09-03T19:15:45;4.32;;;1.48;;
12990;SDS011;6560;57.692;11.958;2022-09-03T19:22:32;2.08;;;1.58;;
12990;SDS011;6560;57.692;11.958;2022-09-03T19:24:51;1.73;;;1.50;;
12990;SDS011;6560;57.692;11.958;2022-09-03T19:33:48;2.05;;;1.10;;
12990;SDS011;6560;57.692;11.958;2022-09-03T19:40:02;1.58;;;1.33;;
12990;SDS011;6560;57.692;11.958;2022-09-03T19:49:05;2.20;;;1.10;;
12990;SDS011;6560;57.692;11.958;2022-09-03T19:54:30;1.85;;;1.20;;
12990;SDS011;6560;57.692;11.958;2022-09-03T19:57:15;1.55;;;1.45;;
12990;SDS011;6560;57.692;11.958;2022-09-03T19:59:58;2.47;;;1.73;;
12990;SDS011;6560;57.692;11.958;2022-09-03T20:02:45;8.80;;;2.13;;
12990;SDS011;6560;57.692;11.958;2022-09-03T20:05:30;3.15;;;1.60;;
12990;SDS011;6560;57.692;11.958;2022-09-03T20:08:15;2.95;;;1.80;;
12990;SDS011;6560;57.692;11.958;2022-09-03T20:11:00;1.98;;;1.58;;
12990;SDS011;6560;57.692;11.958;2022-09-03T20:13:26;3.40;;;1.60;;
12990;SDS011;6560;57.692;11.958;2022-09-03T20:21:22;6.63;;;2.35;;
12990;SDS011;6560;57.692;11.958;2022-09-03T20:31:58;3.05;;;1.90;;
12990;SDS011;6560;57.692;11.958;2022-09-03T20:39:39;4.00;;;1.92;;
12990;SDS011;6560;57.692;11.958;2022-09-03T20:42:18;1.90;;;1.73;;
12990;SDS011;6560;57.692;11.958;2022-09-03T20:45:05;2.33;;;2.08;;
12990;SDS011;6560;57.692;11.958;2022-09-03T20:55:41;2.83;;;1.90;;
12990;SDS011;6560;57.692;11.958;2022-09-03T20:58:12;5.23;;;2.60;;
12990;SDS011;6560;57.692;11.958;2022-09-03T21:00:49;9.70;;;2.17;;
12990;SDS011;6560;57.692;11.958;2022-09-03T21:03:18;2.10;;;1.60;;
12990;SDS011;6560;57.692;11.958;2022-09-03T21:06:04;3.93;;;1.77;;
12990;SDS011;6560;57.692;11.958;2022-09-03T21:08:50;2.03;;;1.53;;
12990;SDS011;6560;57.692;11.958;2022-09-03T21:11:20;2.80;;;1.60;;
12990;SDS011;6560;57.692;11.958;2022-09-03T21:21:51;2.63;;;1.33;;
12990;SDS011;6560;57.692;11.958;2022-09-03T21:24:44;1.87;;;1.30;;
12990;SDS011;6560;57.692;11.958;2022-09-03T21:27:14;1.67;;;1.57;;
12990;SDS011;6560;57.692;11.958;2022-09-03T21:29:42;1.20;;;1.10;;
12990;SDS011;6560;57.692;11.958;2022-09-03T21:46:33;1.93;;;1.40;;
12990;SDS011;6560;57.692;11.958;2022-09-03T22:02:24;2.73;;;1.20;;
12990;SDS011;6560;57.692;11.958;2022-09-03T22:25:04;2.87;;;2.07;;
12990;SDS011;6560;57.692;11.958;2022-09-03T22:51:12;2.53;;;1.60;;
12990;SDS011;6560;57.692;11.958;2022-09-03T22:56:44;2.17;;;1.40;;
12990;SDS011;6560;57.692;11.958;2022-09-03T23:00:01;2.00;;;1.53;;
12990;SDS011;6560;57.692;11.958;2022-09-03T23:02:29;1.70;;;1.40;;
12990;SDS011;6560;57.692;11.958;2022-09-03T23:10:08;1.33;;;1.13;;
12990;SDS011;6560;57.692;11.958;2022-09-03T23:14:59;1.67;;;1.20;;
12990;SDS011;6560;57.692;11.958;2022-09-03T23:17:28;2.73;;;1.63;;
12990;SDS011;6560;57.692;11.958;2022-09-03T23:20:01;1.10;;;1.00;;
12990;SDS011;6560;57.692;11.958;2022-09-03T23:22:32;2.53;;;1.60;;
12990;SDS011;6560;57.692;11.958;2022-09-03T23:25:02;2.53;;;1.87;;
12990;SDS011;6560;57.692;11.958;2022-09-03T23:27:36;1.47;;;1.23;;
12990;SDS011;6560;57.692;11.958;2022-09-03T23:30:03;1.50;;;1.17;;
12990;SDS011;6560;57.692;11.958;2022-09-03T23:32:29;1.57;;;1.47;;
12990;SDS011;6560;57.692;11.958;2022-09-03T23:34:57;1.40;;;1.30;;
12990;SDS011;6560;57.692;11.958;2022-09-03T23:37:43;1.93;;;1.47;;
12990;SDS011;6560;57.692;11.958;2022-09-03T23:42:55;4.73;;;1.30;;
12990;SDS011;6560;57.692;11.958;2022-09-03T23:53:41;1.07;;;0.90;;
